Time;durP1;ratioP1;P1;durP2;ratioP2;P2;SDS_P1;SDS_P2;PMS_P1;PMS_P2;Temp;Humidity;BMP_temperature;BMP_pressure;BME280_temperature;BME280_humidity;BME280_pressure;Samples;Min_cycle;Max_cycle;Signal;HPM_P1;HPM_P2
2023/10/21 00:02:23;;;;;;;;;;;;;;;20.16;44.34;100132.17;102455;1297;61908;-82
2023/10/21 00:04:49;;;;;;;;;;;;;;;20.15;44.29;100133.27;102370;1297;61437;-81
2023/10/21 00:07:17;;;;;;;;;;;;;;;20.15;44.24;100128.64;102340;1297;61462;-83
2023/10/21 00:09:43;;;;;;;;;;;;;;;20.15;44.01;100131.14;102303;1297;71442;-83
2023/10/21 00:12:08;;;;;;;;;;;;;;;20.15;44.36;100128.09;102435;1301;61586;-81
2023/10/21 00:14:34;;;;;;;;;;;;;;;20.15;44.42;100124.02;102342;1297;61598;-84
2023/10/21 00:16:59;;;;;;;;;;;;;;;20.15;44.26;100125.05;102358;1291;62009;-81
2023/10/21 00:19:25;;;;;;;;;;;;;;;20.15;44.06;100128.30;102831;1291;61295;-80
2023/10/21 00:21:53;;;;;;;;;;;;;;;20.15;44.24;100129.00;102784;1292;72383;-81
2023/10/21 00:24:19;;;;;;;;;;;;;;;20.15;44.15;100133.11;102820;1291;74578;-82
2023/10/21 00:26:47;;;;;;;;;;;;;;;20.15;44.09;100137.95;102822;1291;61385;-80
2023/10/21 00:29:14;;;;;;;;;;;;;;;20.15;44.20;100142.94;102937;1291;61436;-81
2023/10/21 00:31:40;;;;;;;;;;;;;;;20.15;44.20;100140.25;103171;1293;72410;-81
2023/10/21 00:34:06;;;;;;;;;;;;;;;20.15;44.18;100138.30;103060;1289;61810;-81
2023/10/21 00:36:31;;;;;;;;;;;;;;;20.15;44.28;100133.48;103226;1288;61363;-82
2023/10/21 00:38:57;;;;;;;;;;;;;;;20.15;44.10;100137.95;103124;1289;62499;-81
2023/10/21 00:41:22;;;;;;;;;;;;;;;20.15;44.12;100139.20;103132;1288;61448;-82
2023/10/21 00:43:48;;;;;;;;;;;;;;;20.14;44.23;100139.40;103251;1292;61296;-82
2023/10/21 00:46:14;;;;;;;;;;;;;;;20.14;44.25;100138.52;103294;1291;62461;-81
2023/10/21 00:48:40;;;;;;;;;;;;;;;20.15;44.12;100139.38;103197;1292;61532;-81
2023/10/21 00:51:05;;;;;;;;;;;;;;;20.14;44.20;100144.05;103050;1288;61929;-80
2023/10/21 00:53:34;;;;;;;;;;;;;;;20.15;44.21;100142.96;103157;1293;61316;-80
2023/10/21 00:56:02;;;;;;;;;;;;;;;20.14;44.24;100142.08;103213;1288;61543;-83
2023/10/21 00:58:32;;;;;;;;;;;;;;;20.14;44.04;100143.33;103047;1288;61291;-81
2023/10/21 01:01:01;;;;;;;;;;;;;;;20.15;44.18;100138.67;103191;1288;61338;-81
2023/10/21 01:03:27;;;;;;;;;;;;;;;20.15;44.21;100134.21;103375;1288;72446;-80
2023/10/21 01:05:53;;;;;;;;;;;;;;;20.14;44.21;100135.28;103517;1292;61348;-81
2023/10/21 01:08:19;;;;;;;;;;;;;;;20.14;44.14;100136.89;103302;1288;61395;-81
2023/10/21 01:10:45;;;;;;;;;;;;;;;20.14;44.15;100133.88;103227;1292;61395;-81
2023/10/21 01:13:11;;;;;;;;;;;;;;;20.15;44.22;100136.89;103308;1289;61424;-82
2023/10/21 01:15:36;;;;;;;;;;;;;;;20.15;44.21;100131.70;103174;1288;61393;-81
2023/10/21 01:18:33;;;;;;;;;;;;;;;20.14;44.11;100130.29;103231;1288;74595;-82
2023/10/21 01:21:00;;;;;;;;;;;;;;;20.14;44.24;100134.21;102754;1294;61313;-82
2023/10/21 01:23:27;;;;;;;;;;;;;;;20.15;44.45;100135.99;102689;1299;61403;-81
2023/10/21 01:25:54;;;;;;;;;;;;;;;20.14;44.26;100135.84;102691;1294;61472;-81
2023/10/21 01:28:19;;;;;;;;;;;;;;;20.15;44.33;100137.43;102781;1294;75373;-81
2023/10/21 01:30:45;;;;;;;;;;;;;;;20.15;44.20;100136.89;102582;1294;61419;-80
2023/10/21 01:33:10;;;;;;;;;;;;;;;20.15;44.49;100145.11;102654;1300;61855;-80
2023/10/21 01:35:36;;;;;;;;;;;;;;;20.15;44.32;100143.33;102566;1294;62471;-82
2023/10/21 01:38:01;;;;;;;;;;;;;;;20.15;44.14;100149.90;102479;1294;61857;-82
2023/10/21 01:40:27;;;;;;;;;;;;;;;20.15;44.20;100159.58;102715;1294;72839;-81
2023/10/21 01:42:53;;;;;;;;;;;;;;;20.15;44.24;100164.40;102500;1299;61502;-81
2023/10/21 01:45:27;;;;;;;;;;;;;;;20.14;44.22;100169.95;102608;1294;61388;-83
2023/10/21 01:47:53;;;;;;;;;;;;;;;20.15;44.30;100169.77;102591;1299;61326;-81
2023/10/21 01:50:19;;;;;;;;;;;;;;;20.15;44.44;100167.27;102411;1294;61434;-81
2023/10/21 01:52:44;;;;;;;;;;;;;;;20.15;44.42;100166.18;102656;1294;61507;-81
2023/10/21 01:55:10;;;;;;;;;;;;;;;20.15;44.39;100164.58;102702;1299;61373;-81
2023/10/21 01:57:35;;;;;;;;;;;;;;;20.14;44.41;100163.69;102816;1289;61340;-80
2023/10/21 02:00:04;;;;;;;;;;;;;;;20.15;44.21;100162.60;103076;1288;61476;-81
2023/10/21 02:02:29;;;;;;;;;;;;;;;20.14;44.31;100163.52;103052;1288;75357;-81
2023/10/21 02:04:55;;;;;;;;;;;;;;;20.14;44.30;100161.38;103366;1292;61421;-80
2023/10/21 02:07:20;;;;;;;;;;;;;;;20.14;44.33;100166.20;103405;1290;61338;-80
2023/10/21 02:09:46;;;;;;;;;;;;;;;20.14;44.25;100162.11;103196;1288;61447;-81
2023/10/21 02:12:12;;;;;;;;;;;;;;;20.14;44.30;100166.40;103167;1294;61342;-82
2023/10/21 02:14:38;;;;;;;;;;;;;;;20.14;44.34;100162.84;103234;1288;61390;-83
2023/10/21 02:17:05;;;;;;;;;;;;;;;20.14;44.27;100163.52;103027;1291;62672;-80
2023/10/21 02:19:30;;;;;;;;;;;;;;;20.15;44.38;100164.93;103028;1288;61362;-81
2023/10/21 02:21:56;;;;;;;;;;;;;;;20.14;44.28;100163.91;102626;1288;384959;-80
2023/10/21 02:24:21;;;;;;;;;;;;;;;20.14;44.44;100167.46;103123;1293;61434;-80
2023/10/21 02:26:49;;;;;;;;;;;;;;;20.14;44.39;100162.27;103189;1292;61418;-81
2023/10/21 02:29:15;;;;;;;;;;;;;;;20.14;44.35;100164.45;103192;1288;62766;-81
2023/10/21 02:31:41;;;;;;;;;;;;;;;20.15;44.36;100165.84;103266;1290;61381;-80
2023/10/21 02:34:07;;;;;;;;;;;;;;;20.14;44.30;100166.02;103073;1288;62376;-85
2023/10/21 02:36:34;;;;;;;;;;;;;;;20.14;44.32;100166.02;103281;1288;61356;-80
2023/10/21 02:39:00;;;;;;;;;;;;;;;20.14;44.41;100165.13;103152;1290;61275;-80
2023/10/21 02:41:26;;;;;;;;;;;;;;;20.14;44.32;100166.40;103043;1288;62428;-80
2023/10/21 02:43:52;;;;;;;;;;;;;;;20.14;44.39;100163.35;103247;1292;61387;-81
2023/10/21 02:46:18;;;;;;;;;;;;;;;20.14;44.26;100169.80;103322;1291;61453;-83
2023/10/21 02:48:44;;;;;;;;;;;;;;;20.14;44.38;100171.41;103188;1291;62290;-82
2023/10/21 02:51:13;;;;;;;;;;;;;;;20.14;44.33;100174.45;103296;1288;61390;-81
2023/10/21 02:53:39;;;;;;;;;;;;;;;20.14;44.45;100176.77;102976;1291;61501;-83
2023/10/21 02:56:06;;;;;;;;;;;;;;;20.14;44.32;100180.15;103190;1293;61371;-82
2023/10/21 02:58:32;;;;;;;;;;;;;;;20.14;44.30;100178.20;103100;1288;61442;-81
2023/10/21 03:00:58;;;;;;;;;;;;;;;20.14;44.35;100179.81;103084;1293;61386;-80
2023/10/21 03:03:23;;;;;;;;;;;;;;;20.14;44.37;100177.86;103272;1288;61412;-81
2023/10/21 03:05:49;;;;;;;;;;;;;;;20.14;44.38;100173.20;103343;1292;61384;-82
2023/10/21 03:08:14;;;;;;;;;;;;;;;20.14;44.43;100175.70;103167;1288;61385;-80
2023/10/21 03:10:40;;;;;;;;;;;;;;;20.14;44.49;100177.52;102980;1291;61402;-81
2023/10/21 03:13:06;;;;;;;;;;;;;;;20.14;44.31;100172.33;103233;1292;61299;-80
2023/10/21 03:15:34;;;;;;;;;;;;;;;20.14;44.28;100167.84;103121;1290;61494;-80
2023/10/21 03:18:00;;;;;;;;;;;;;;;20.14;44.33;100172.84;103137;1293;73571;-80
2023/10/21 03:20:27;;;;;;;;;;;;;;;20.14;44.37;100171.26;103198;1292;61957;-82
2023/10/21 03:22:52;;;;;;;;;;;;;;;20.13;44.38;100171.45;103032;1290;62105;-83
2023/10/21 03:25:18;;;;;;;;;;;;;;;20.14;44.55;100171.07;103230;1292;61472;-81
2023/10/21 03:27:45;;;;;;;;;;;;;;;20.14;44.33;100174.64;103129;1291;61342;-82
2023/10/21 03:30:11;;;;;;;;;;;;;;;20.14;44.32;100178.77;103160;1288;61408;-81
2023/10/21 03:32:37;;;;;;;;;;;;;;;20.14;44.39;100180.72;103173;1288;61400;-81
2023/10/21 03:35:04;;;;;;;;;;;;;;;20.14;44.25;100182.34;103208;1288;61965;-80
2023/10/21 03:37:29;;;;;;;;;;;;;;;20.14;44.43;100182.15;102998;1293;61402;-82
2023/10/21 03:39:55;;;;;;;;;;;;;;;20.14;44.18;100183.95;103271;1291;61453;-80
2023/10/21 03:42:21;;;;;;;;;;;;;;;20.14;44.27;100184.13;103040;1292;61447;-81
2023/10/21 03:44:48;;;;;;;;;;;;;;;20.13;44.28;100180.39;103301;1289;61411;-81
2023/10/21 03:47:13;;;;;;;;;;;;;;;20.14;44.22;100181.80;102991;1289;61440;-81
2023/10/21 03:49:39;;;;;;;;;;;;;;;20.13;44.40;100183.06;103018;1293;61993;-81
2023/10/21 03:52:04;;;;;;;;;;;;;;;20.13;44.36;100180.42;103014;1291;61449;-81
2023/10/21 03:54:30;;;;;;;;;;;;;;;20.12;44.31;100184.21;103209;1292;61423;-80
2023/10/21 03:56:55;;;;;;;;;;;;;;;20.13;44.50;100186.84;103098;1289;61421;-81
2023/10/21 03:59:21;;;;;;;;;;;;;;;20.13;44.33;100183.47;103038;1294;61930;-81
2023/10/21 04:01:46;;;;;;;;;;;;;;;20.13;44.20;100183.46;103185;1292;61383;-82
2023/10/21 04:04:12;;;;;;;;;;;;;;;20.13;44.33;100183.99;103060;1289;61379;-82
2023/10/21 04:06:37;;;;;;;;;;;;;;;20.13;44.38;100178.66;103197;1292;61454;-81
2023/10/21 04:09:03;;;;;;;;;;;;;;;20.13;44.29;100177.39;103043;1292;61580;-82
2023/10/21 04:11:29;;;;;;;;;;;;;;;20.13;44.26;100174.35;103234;1289;73825;-82
2023/10/21 04:13:54;;;;;;;;;;;;;;;20.13;44.29;100177.20;103034;1293;61453;-82
2023/10/21 04:16:20;;;;;;;;;;;;;;;20.13;44.36;100172.75;103235;1290;61481;-80
2023/10/21 04:18:46;;;;;;;;;;;;;;;20.13;44.20;100174.35;103125;1293;61402;-81
2023/10/21 04:21:11;;;;;;;;;;;;;;;20.13;44.20;100171.86;103047;1293;61463;-80
2023/10/21 04:23:37;;;;;;;;;;;;;;;20.13;44.36;100177.73;102950;1295;61418;-81
2023/10/21 04:26:03;;;;;;;;;;;;;;;20.13;44.22;100176.66;103318;1294;62102;-81
2023/10/21 04:28:29;;;;;;;;;;;;;;;20.13;44.37;100180.97;103223;1293;61339;-81
2023/10/21 04:30:54;;;;;;;;;;;;;;;20.13;44.22;100186.31;103114;1293;61411;-81
2023/10/21 04:33:20;;;;;;;;;;;;;;;20.12;44.32;100189.77;103193;1293;61327;-80
2023/10/21 04:35:45;;;;;;;;;;;;;;;20.13;44.35;100201.18;103233;1288;61544;-82
2023/10/21 04:38:11;;;;;;;;;;;;;;;20.12;44.44;100202.62;102901;1293;74461;-81
2023/10/21 04:40:36;;;;;;;;;;;;;;;20.13;44.36;100206.54;103040;1290;61361;-81
2023/10/21 04:43:03;;;;;;;;;;;;;;;20.13;44.41;100209.02;103297;1292;62423;-81
2023/10/21 04:45:29;;;;;;;;;;;;;;;20.13;44.31;100213.30;103283;1290;61324;-81
2023/10/21 04:47:54;;;;;;;;;;;;;;;20.13;44.31;100215.65;103193;1292;62466;-81
2023/10/21 04:50:20;;;;;;;;;;;;;;;20.13;44.23;100220.27;103253;1289;61920;-81
2023/10/21 04:53:09;;;;;;;;;;;;;;;20.13;44.32;100222.23;103035;1289;61847;-82
2023/10/21 04:55:34;;;;;;;;;;;;;;;20.13;44.21;100228.11;102734;1297;61570;-81
2023/10/21 04:58:00;;;;;;;;;;;;;;;20.13;44.24;100228.85;102711;1300;61491;-81
2023/10/21 05:00:25;;;;;;;;;;;;;;;20.13;44.27;100228.29;102675;1293;61377;-81
2023/10/21 05:02:51;;;;;;;;;;;;;;;20.14;44.29;100237.55;102782;1298;61719;-81
2023/10/21 05:05:17;;;;;;;;;;;;;;;20.13;44.26;100240.96;102932;1296;61747;-80
2023/10/21 05:07:42;;;;;;;;;;;;;;;20.14;44.41;100238.79;102747;1300;61327;-81
2023/10/21 05:10:08;;;;;;;;;;;;;;;20.14;44.21;100242.48;102740;1297;61404;-82
2023/10/21 05:12:34;;;;;;;;;;;;;;;20.14;44.22;100252.16;102747;1295;61494;-83
2023/10/21 05:15:03;;;;;;;;;;;;;;;20.14;44.42;100253.21;102724;1296;62650;-81
2023/10/21 05:17:45;;;;;;;;;;;;;;;20.14;44.31;100255.35;102715;1292;62578;-82
2023/10/21 05:20:11;;;;;;;;;;;;;;;20.14;44.20;100255.16;102722;1293;61441;-81
2023/10/21 05:22:37;;;;;;;;;;;;;;;20.15;44.29;100259.63;102787;1297;61406;-80
2023/10/21 05:25:03;;;;;;;;;;;;;;;20.15;44.24;100261.19;102808;1297;61724;-81
2023/10/21 05:27:28;;;;;;;;;;;;;;;20.15;44.26;100262.30;102722;1298;61360;-82
2023/10/21 05:29:54;;;;;;;;;;;;;;;20.15;44.23;100263.91;102726;1297;61389;-80
2023/10/21 05:32:19;;;;;;;;;;;;;;;20.14;44.15;100267.30;102805;1289;72347;-81
2023/10/21 05:34:45;;;;;;;;;;;;;;;20.15;44.11;100274.39;103200;1293;62477;-81
2023/10/21 05:37:11;;;;;;;;;;;;;;;20.16;44.08;100276.16;103011;1294;61400;-81
2023/10/21 05:39:37;;;;;;;;;;;;;;;20.15;44.13;100275.45;103143;1292;61574;-83
2023/10/21 05:42:03;;;;;;;;;;;;;;;20.16;44.25;100274.90;103114;1289;61407;-83
2023/10/21 05:44:29;;;;;;;;;;;;;;;20.16;44.18;100282.39;103153;1292;61279;-84
2023/10/21 05:46:54;;;;;;;;;;;;;;;20.16;44.09;100284.36;103238;1301;61350;-82
2023/10/21 05:49:21;;;;;;;;;;;;;;;20.16;44.10;100285.97;103122;1290;61432;-81
2023/10/21 05:51:47;;;;;;;;;;;;;;;20.16;44.05;100287.75;103097;1288;61264;-81
2023/10/21 05:54:13;;;;;;;;;;;;;;;20.16;44.01;100287.20;103244;1290;62565;-81
2023/10/21 05:56:38;;;;;;;;;;;;;;;20.16;44.07;100289.70;103129;1292;62223;-83
2023/10/21 05:59:04;;;;;;;;;;;;;;;20.16;44.09;100295.56;103096;1294;61411;-82
2023/10/21 06:01:30;;;;;;;;;;;;;;;20.16;44.25;100301.63;103346;1292;62033;-78
2023/10/21 06:03:55;;;;;;;;;;;;;;;20.16;44.00;100303.98;103335;1292;61379;-81
2023/10/21 06:06:22;;;;;;;;;;;;;;;20.17;44.11;100309.67;103311;1293;61484;-81
2023/10/21 06:08:48;;;;;;;;;;;;;;;20.16;44.13;100310.21;102980;1294;61383;-82
2023/10/21 06:11:13;;;;;;;;;;;;;;;20.17;44.03;100311.06;103137;1293;62403;-81
2023/10/21 06:13:39;;;;;;;;;;;;;;;20.17;44.05;100305.36;103060;1292;61413;-82
2023/10/21 06:16:05;;;;;;;;;;;;;;;20.17;43.94;100306.59;103043;1286;62585;-82
2023/10/21 06:18:33;;;;;;;;;;;;;;;20.17;44.08;100310.89;103071;1293;61410;-81
2023/10/21 06:20:59;;;;;;;;;;;;;;;20.17;44.17;100309.27;103216;1292;61377;-83
2023/10/21 06:23:24;;;;;;;;;;;;;;;20.17;43.97;100309.96;103387;1292;61453;-81
2023/10/21 06:25:52;;;;;;;;;;;;;;;20.18;44.06;100311.19;103270;1292;61411;-80
2023/10/21 06:28:17;;;;;;;;;;;;;;;20.17;43.92;100316.04;103212;1287;72563;-82
2023/10/21 06:30:43;;;;;;;;;;;;;;;20.17;44.02;100313.02;103182;1291;62073;-81
2023/10/21 06:33:11;;;;;;;;;;;;;;;20.18;44.11;100315.84;103453;1294;62486;-81
2023/10/21 06:35:37;;;;;;;;;;;;;;;20.18;43.96;100318.86;103041;1288;61308;-82
2023/10/21 06:38:04;;;;;;;;;;;;;;;20.18;44.04;100317.98;103103;1292;61957;-82
2023/10/21 06:40:30;;;;;;;;;;;;;;;20.18;43.94;100325.12;103259;1292;61388;-81
2023/10/21 06:42:56;;;;;;;;;;;;;;;20.18;43.90;100327.08;103146;1288;61987;-83
2023/10/21 06:45:22;;;;;;;;;;;;;;;20.18;43.92;100334.36;103210;1291;61364;-80
2023/10/21 06:47:48;;;;;;;;;;;;;;;20.19;43.90;100336.11;103095;1289;62666;-81
2023/10/21 06:50:14;;;;;;;;;;;;;;;20.18;43.96;100332.58;102999;1291;61449;-82
2023/10/21 06:52:39;;;;;;;;;;;;;;;20.19;43.90;100332.92;103161;1291;61417;-81
2023/10/21 06:55:07;;;;;;;;;;;;;;;20.18;43.99;100332.05;103186;1294;62432;-82
2023/10/21 06:57:32;;;;;;;;;;;;;;;20.19;43.80;100336.84;103181;1292;61345;-83
2023/10/21 06:59:59;;;;;;;;;;;;;;;20.19;43.88;100337.17;103063;1289;61394;-82
2023/10/21 07:02:25;;;;;;;;;;;;;;;20.19;43.81;100341.66;103288;1290;61820;-83
2023/10/21 07:04:53;;;;;;;;;;;;;;;20.19;43.78;100339.48;103256;1295;61381;-81
2023/10/21 07:07:18;;;;;;;;;;;;;;;20.20;43.93;100343.74;102998;1289;61350;-81
2023/10/21 07:09:44;;;;;;;;;;;;;;;20.20;43.87;100344.82;103261;1292;61785;-81
2023/10/21 07:12:12;;;;;;;;;;;;;;;20.20;43.86;100347.48;103194;1293;61389;-80
2023/10/21 07:14:37;;;;;;;;;;;;;;;20.20;43.79;100349.42;103113;1293;61959;-81
2023/10/21 07:17:03;;;;;;;;;;;;;;;20.20;43.87;100352.81;103065;1292;61395;-80
2023/10/21 07:19:29;;;;;;;;;;;;;;;20.20;43.88;100349.24;103050;1293;61324;-80
2023/10/21 07:21:55;;;;;;;;;;;;;;;20.20;43.83;100357.61;103132;1288;61398;-80
2023/10/21 07:24:20;;;;;;;;;;;;;;;20.21;43.79;100358.86;103299;1292;61420;-82
2023/10/21 07:26:46;;;;;;;;;;;;;;;20.21;43.85;100357.77;103049;1288;61342;-81
2023/10/21 07:29:11;;;;;;;;;;;;;;;20.21;43.81;100358.98;103025;1288;61851;-81
2023/10/21 07:31:38;;;;;;;;;;;;;;;20.21;43.84;100354.34;103389;1288;61381;-80
2023/10/21 07:34:03;;;;;;;;;;;;;;;20.22;43.88;100352.90;103179;1290;61304;-81
2023/10/21 07:36:29;;;;;;;;;;;;;;;20.22;43.78;100353.94;103083;1292;62532;-80
2023/10/21 07:38:54;;;;;;;;;;;;;;;20.22;43.86;100353.06;103251;1288;61383;-80
2023/10/21 07:41:23;;;;;;;;;;;;;;;20.23;43.75;100356.89;103127;1292;62506;-80
2023/10/21 07:43:48;;;;;;;;;;;;;;;20.23;43.81;100355.44;103288;1288;71526;-82
2023/10/21 07:46:14;;;;;;;;;;;;;;;20.23;43.86;100357.22;103213;1287;61392;-82
2023/10/21 07:48:40;;;;;;;;;;;;;;;20.24;43.84;100360.00;103271;1292;61394;-81
2023/10/21 07:51:06;;;;;;;;;;;;;;;20.25;43.87;100362.84;103119;1288;62461;-82
2023/10/21 07:53:31;;;;;;;;;;;;;;;20.24;43.81;100364.45;103021;1292;61459;-80
2023/10/21 07:55:57;;;;;;;;;;;;;;;20.25;43.81;100363.17;103101;1290;61458;-80
2023/10/21 07:58:23;;;;;;;;;;;;;;;20.25;43.93;100367.27;103043;1291;74506;-82
2023/10/21 08:00:49;;;;;;;;;;;;;;;20.26;43.82;100369.73;103323;1290;61418;-81
2023/10/21 08:03:14;;;;;;;;;;;;;;;20.26;43.82;100371.48;103067;1291;61373;-82
2023/10/21 08:05:40;;;;;;;;;;;;;;;20.26;43.92;100373.06;103184;1292;61395;-81
2023/10/21 08:08:05;;;;;;;;;;;;;;;20.28;43.76;100371.76;103068;1288;61500;-82
2023/10/21 08:10:32;;;;;;;;;;;;;;;20.28;43.77;100370.85;103135;1290;74355;-81
2023/10/21 08:12:57;;;;;;;;;;;;;;;20.28;43.73;100373.48;103258;1295;61411;-81
2023/10/21 08:15:24;;;;;;;;;;;;;;;20.28;43.78;100371.15;103136;1292;61569;-82
2023/10/21 08:18:15;;;;;;;;;;;;;;;20.28;43.67;100372.06;103349;1293;61451;-81
2023/10/21 08:20:41;;;;;;;;;;;;;;;20.29;43.83;100373.08;102732;1294;75189;-81
2023/10/21 08:23:07;;;;;;;;;;;;;;;20.30;43.86;100370.54;102642;1294;61420;-83
2023/10/21 08:25:33;;;;;;;;;;;;;;;20.30;43.97;100374.59;102386;1294;61433;-81
2023/10/21 08:27:58;;;;;;;;;;;;;;;20.30;43.84;100372.98;102431;1295;61472;-81
2023/10/21 08:30:24;;;;;;;;;;;;;;;20.31;43.78;100372.92;102581;1295;61452;-82
2023/10/21 08:32:52;;;;;;;;;;;;;;;20.31;43.87;100370.79;102513;1300;61442;-81
2023/10/21 08:35:18;;;;;;;;;;;;;;;20.31;43.79;100374.17;102661;1295;61796;-81
2023/10/21 08:37:44;;;;;;;;;;;;;;;20.31;43.82;100375.94;102596;1301;61460;-81
2023/10/21 08:40:10;;;;;;;;;;;;;;;20.32;43.75;100378.25;102555;1295;62150;-81
2023/10/21 08:42:36;;;;;;;;;;;;;;;20.32;43.90;100377.52;102631;1299;61503;-80
2023/10/21 08:45:06;;;;;;;;;;;;;;;20.32;43.97;100383.55;102567;1297;62119;-81
2023/10/21 08:47:31;;;;;;;;;;;;;;;20.32;43.92;100383.38;102571;1298;61459;-80
2023/10/21 08:49:57;;;;;;;;;;;;;;;20.32;43.95;100382.15;102502;1296;61332;-81
2023/10/21 08:52:23;;;;;;;;;;;;;;;20.33;43.89;100382.11;102534;1297;62585;-82
2023/10/21 08:54:49;;;;;;;;;;;;;;;20.33;43.83;100385.64;102494;1299;61391;-82
2023/10/21 08:57:16;;;;;;;;;;;;;;;20.33;43.72;100383.52;102633;1290;62249;-81
2023/10/21 08:59:42;;;;;;;;;;;;;;;20.33;43.66;100384.38;103394;1292;61321;-80
2023/10/21 09:02:08;;;;;;;;;;;;;;;20.33;43.72;100378.67;103195;1288;62233;-82
2023/10/21 09:04:33;;;;;;;;;;;;;;;20.34;43.72;100376.85;103275;1288;61393;-81
2023/10/21 09:06:59;;;;;;;;;;;;;;;20.34;43.69;100381.84;103259;1288;61450;-82
2023/10/21 09:09:26;;;;;;;;;;;;;;;20.34;43.67;100378.78;103262;1293;61813;-81
2023/10/21 09:12:13;;;;;;;;;;;;;;;20.34;43.64;100379.87;103224;1292;72491;-81
2023/10/21 09:14:52;;;;;;;;;;;;;;;20.34;43.71;100380.16;103363;1288;74597;-83
2023/10/21 09:17:18;;;;;;;;;;;;;;;20.35;43.59;100375.69;103180;1288;61371;-81
2023/10/21 09:19:45;;;;;;;;;;;;;;;20.35;43.54;100376.58;103418;1288;61377;-82
2023/10/21 09:22:23;;;;;;;;;;;;;;;20.35;43.54;100374.97;103333;1291;62430;-81
2023/10/21 09:24:48;;;;;;;;;;;;;;;20.35;43.61;100378.32;103225;1288;75548;-81
2023/10/21 09:27:14;;;;;;;;;;;;;;;20.36;43.56;100375.25;102888;1291;61418;-81
2023/10/21 09:29:39;;;;;;;;;;;;;;;20.35;43.60;100377.28;103019;1291;61485;-81
2023/10/21 09:32:05;;;;;;;;;;;;;;;20.36;43.41;100372.94;103136;1290;61932;-81
2023/10/21 09:34:34;;;;;;;;;;;;;;;20.36;43.38;100374.71;103076;1288;61991;-81
2023/10/21 09:37:04;;;;;;;;;;;;;;;20.36;43.39;100371.11;103020;1291;75558;-81
2023/10/21 09:39:33;;;;;;;;;;;;;;;20.36;43.39;100370.25;103186;1292;61512;-81
2023/10/21 09:41:59;;;;;;;;;;;;;;;20.36;43.39;100369.88;103122;1288;61391;-80
2023/10/21 09:44:26;;;;;;;;;;;;;;;20.36;43.32;100366.80;102845;1293;61383;-82
2023/10/21 09:46:51;;;;;;;;;;;;;;;20.37;43.21;100369.27;102809;1290;61414;-81
2023/10/21 09:49:17;;;;;;;;;;;;;;;20.37;43.23;100368.92;102920;1288;61546;-82
2023/10/21 09:52:01;;;;;;;;;;;;;;;20.37;43.08;100367.65;102932;1290;61736;-81
2023/10/21 09:54:31;;;;;;;;;;;;;;;20.37;43.03;100361.23;103022;1293;72435;-82
2023/10/21 09:56:57;;;;;;;;;;;;;;;20.37;42.99;100359.43;103149;1290;74505;-82
2023/10/21 09:59:23;;;;;;;;;;;;;;;20.37;42.91;100355.48;102887;1291;62411;-80
2023/10/21 10:01:49;;;;;;;;;;;;;;;20.38;42.79;100350.05;102861;1289;61430;-82
2023/10/21 10:04:15;;;;;;;;;;;;;;;20.37;42.75;100349.91;102917;1288;61424;-82
2023/10/21 10:06:41;;;;;;;;;;;;;;;20.37;42.79;100347.05;103155;1288;61558;-81
2023/10/21 10:09:07;;;;;;;;;;;;;;;20.38;42.66;100346.88;102944;1293;61414;-81
2023/10/21 10:11:34;;;;;;;;;;;;;;;20.38;42.62;100347.23;103105;1293;61307;-80
2023/10/21 10:14:01;;;;;;;;;;;;;;;20.38;42.50;100346.84;103217;1291;61674;-81
2023/10/21 10:16:27;;;;;;;;;;;;;;;20.38;42.65;100342.73;103074;1292;61396;-81
2023/10/21 10:18:55;;;;;;;;;;;;;;;20.38;42.44;100343.61;103330;1287;61391;-80
2023/10/21 10:21:21;;;;;;;;;;;;;;;20.39;42.34;100343.59;103106;1288;61395;-81
2023/10/21 10:23:48;;;;;;;;;;;;;;;20.38;42.42;100336.61;102853;1288;62074;-82
2023/10/21 10:26:15;;;;;;;;;;;;;;;20.38;42.32;100337.67;102868;1288;61857;-81
2023/10/21 10:28:41;;;;;;;;;;;;;;;20.38;42.26;100337.31;103416;1288;61485;-81
2023/10/21 10:31:07;;;;;;;;;;;;;;;20.39;42.14;100331.73;103144;1293;62443;-83
2023/10/21 10:33:33;;;;;;;;;;;;;;;20.39;42.15;100329.20;102989;1290;61417;-81
2023/10/21 10:36:16;;;;;;;;;;;;;;;;;;;;;
2023/10/21 10:38:47;;;;;;;;;;;;;;;20.40;42.04;100327.23;103140;1293;61385;-80
2023/10/21 10:41:16;;;;;;;;;;;;;;;20.40;41.94;100325.25;103009;1289;61539;-81
2023/10/21 10:43:43;;;;;;;;;;;;;;;20.40;41.87;100325.23;102930;1290;72539;-81
2023/10/21 10:46:10;;;;;;;;;;;;;;;20.40;41.87;100325.96;103274;1288;74565;-81
2023/10/21 10:48:36;;;;;;;;;;;;;;;20.40;41.93;100326.47;102955;1293;61361;-81
2023/10/21 10:51:15;;;;;;;;;;;;;;;20.40;41.77;100323.80;103205;1288;61451;-82
2023/10/21 10:53:52;;;;;;;;;;;;;;;20.40;41.66;100321.82;103270;1289;72477;-81
2023/10/21 10:56:20;;;;;;;;;;;;;;;20.40;41.72;100316.67;103049;1288;74538;-82
2023/10/21 10:58:46;;;;;;;;;;;;;;;20.40;41.74;100319.13;103225;1288;61413;-81
2023/10/21 11:01:25;;;;;;;;;;;;;;;20.40;41.55;100317.87;103018;1288;62558;-81
2023/10/21 11:03:55;;;;;;;;;;;;;;;20.40;41.65;100323.08;103148;1290;72244;-81
2023/10/21 11:06:21;;;;;;;;;;;;;;;20.41;41.41;100322.48;102989;1288;74365;-81
2023/10/21 11:08:48;;;;;;;;;;;;;;;20.41;41.54;100326.77;103360;1292;61500;-81
2023/10/21 11:11:14;;;;;;;;;;;;;;;20.41;41.50;100326.23;103335;1288;62390;-83
2023/10/21 11:13:41;;;;;;;;;;;;;;;20.41;41.40;100325.14;103247;1292;61414;-80
2023/10/21 11:16:07;;;;;;;;;;;;;;;20.41;41.35;100325.66;103227;1291;61383;-81
2023/10/21 11:18:34;;;;;;;;;;;;;;;20.42;41.18;100330.29;103061;1288;61339;-81
2023/10/21 11:21:00;;;;;;;;;;;;;;;20.42;41.19;100329.21;103037;1288;61834;-81
2023/10/21 11:23:26;;;;;;;;;;;;;;;20.42;41.18;100324.92;103158;1291;62341;-82
2023/10/21 11:25:53;;;;;;;;;;;;;;;20.42;41.05;100324.02;103132;1291;61473;-81
2023/10/21 11:28:18;;;;;;;;;;;;;;;20.42;41.04;100322.06;103164;1291;61387;-81
2023/10/21 11:30:45;;;;;;;;;;;;;;;20.42;41.14;100321.33;103331;1288;61475;-81
2023/10/21 11:33:11;;;;;;;;;;;;;;;20.42;41.15;100326.48;103087;1288;61415;-81
2023/10/21 11:35:40;;;;;;;;;;;;;;;20.42;40.94;100322.20;103037;1292;61427;-81
2023/10/21 11:38:06;;;;;;;;;;;;;;;20.42;41.04;100318.27;103036;1288;61587;-82
2023/10/21 11:40:35;;;;;;;;;;;;;;;20.43;40.89;100320.02;103230;1287;61390;-81
2023/10/21 11:43:04;;;;;;;;;;;;;;;20.43;40.93;100322.34;103046;1287;72510;-81
2023/10/21 11:45:30;;;;;;;;;;;;;;;20.42;40.90;100320.92;103025;1289;74560;-81
2023/10/21 11:47:56;;;;;;;;;;;;;;;20.42;40.80;100320.42;103313;1288;62337;-80
2023/10/21 11:50:23;;;;;;;;;;;;;;;20.43;40.87;100323.20;103305;1292;61639;-80
2023/10/21 11:52:48;;;;;;;;;;;;;;;20.43;40.68;100324.14;103317;1289;61466;-80
2023/10/21 12:15:07;;;;;;;;;;;;;;;;;;;;;
2023/10/21 12:42:12;;;;;;;;;;;;;;;20.48;40.09;100313.58;100724;1318;62898;-83
2023/10/21 12:44:47;;;;;;;;;;;;;;;20.48;39.95;100318.39;100664;1320;61562;-81
2023/10/21 12:47:13;;;;;;;;;;;;;;;20.48;40.03;100316.95;100721;1321;73530;-81
2023/10/21 12:49:43;;;;;;;;;;;;;;;20.49;40.07;100318.67;100661;1318;61563;-82
2023/10/21 12:52:11;;;;;;;;;;;;;;;20.49;39.97;100317.81;100739;1318;61554;-81
2023/10/21 12:54:37;;;;;;;;;;;;;;;20.49;39.94;100320.43;100867;1315;61349;-81
2023/10/21 12:57:07;;;;;;;;;;;;;;;20.49;39.85;100320.63;100810;1315;61653;-81
2023/10/21 12:59:33;;;;;;;;;;;;;;;20.49;39.76;100320.43;101247;1315;75442;-81
2023/10/21 13:01:59;;;;;;;;;;;;;;;20.49;39.78;100322.42;100975;1309;62747;-82
2023/10/21 13:04:24;;;;;;;;;;;;;;;20.50;39.66;100321.85;101568;1309;61461;-81
2023/10/21 13:06:53;;;;;;;;;;;;;;;20.49;39.68;100321.31;101414;1309;61560;-81
2023/10/21 13:09:24;;;;;;;;;;;;;;;20.49;39.73;100322.02;102124;1306;61415;-80
2023/10/21 13:11:52;;;;;;;;;;;;;;;20.50;39.74;100319.33;102131;1303;61786;-81